Time;durP1;ratioP1;P1;durP2;ratioP2;P2;SDS_P1;SDS_P2;PMS_P1;PMS_P2;Temp;Humidity;BMP_temperature;BMP_pressure;BME280_temperature;BME280_humidity;BME280_pressure;Samples;Min_cycle;Max_cycle;Signal;HPM_P1;HPM_P2
2021/08/07 00:01:25;;;;;;;3.10;2.90;;;14.80;99.90;;;;;;4995887;28;20175;-82
2021/08/07 00:03:52;;;;;;;2.80;2.70;;;14.80;99.90;;;;;;4995706;28;20171;-82
2021/08/07 00:06:19;;;;;;;3.17;3.07;;;14.80;99.90;;;;;;4978496;28;20504;-82
2021/08/07 00:08:44;;;;;;;5.00;2.70;;;14.80;99.90;;;;;;4977923;28;21029;-82
2021/08/07 00:11:10;;;;;;;3.33;3.13;;;14.80;99.90;;;;;;4995562;28;20449;-81
2021/08/07 00:13:36;;;;;;;3.13;2.97;;;14.80;99.90;;;;;;4995513;28;20270;-82
2021/08/07 00:16:02;;;;;;;3.00;2.80;;;14.70;99.90;;;;;;4995436;28;20170;-82
2021/08/07 00:18:28;;;;;;;3.43;3.23;;;14.70;99.90;;;;;;4995539;28;20174;-82
2021/08/07 00:20:54;;;;;;;3.50;3.17;;;14.70;99.90;;;;;;4978228;28;20179;-82
2021/08/07 00:23:19;;;;;;;3.17;3.00;;;14.70;99.90;;;;;;4995381;28;20440;-82
2021/08/07 00:25:45;;;;;;;2.70;2.60;;;14.70;99.90;;;;;;4978106;28;20175;-82
2021/08/07 00:28:10;;;;;;;3.47;3.20;;;14.70;99.90;;;;;;4995135;28;20734;-81
2021/08/07 00:30:37;;;;;;;3.43;3.10;;;14.60;99.90;;;;;;4995201;28;20512;-82
2021/08/07 00:33:03;;;;;;;3.60;3.40;;;14.60;99.90;;;;;;4995202;28;20597;-82
2021/08/07 00:35:29;;;;;;;2.40;2.30;;;14.50;99.90;;;;;;4995063;28;20413;-82
2021/08/07 00:37:54;;;;;;;3.10;2.90;;;14.50;99.90;;;;;;4995101;28;20187;-82
2021/08/07 00:40:20;;;;;;;3.10;3.00;;;14.50;99.90;;;;;;4995171;28;20167;-81
2021/08/07 00:42:46;;;;;;;2.77;2.67;;;14.50;99.90;;;;;;4995043;28;20156;-82
2021/08/07 00:45:12;;;;;;;3.20;3.10;;;14.50;99.90;;;;;;4994913;28;20167;-81
2021/08/07 00:47:38;;;;;;;3.43;3.33;;;14.50;99.90;;;;;;4994869;28;20449;-82
2021/08/07 00:50:05;;;;;;;2.80;2.70;;;14.50;99.90;;;;;;4977740;28;20832;-82
2021/08/07 00:52:31;;;;;;;3.10;3.00;;;14.40;99.90;;;;;;4994835;28;20563;-82
2021/08/07 00:54:59;;;;;;;3.43;3.23;;;14.40;99.90;;;;;;4994740;28;20402;-81
2021/08/07 00:57:28;;;;;;;3.40;3.20;;;14.40;99.90;;;;;;4977548;28;20207;-81
2021/08/07 00:59:53;;;;;;;3.27;3.13;;;14.40;99.90;;;;;;4977382;28;20540;-81
2021/08/07 01:02:21;;;;;;;2.87;2.67;;;14.40;99.90;;;;;;4977660;28;20497;-81
2021/08/07 01:05:12;;;;;;;3.27;3.07;;;14.40;99.90;;;;;;4994625;28;20180;-81
2021/08/07 01:07:59;;;;;;;3.13;2.93;;;14.40;99.90;;;;;;4988147;28;20953;-81
2021/08/07 01:10:25;;;;;;;3.67;3.40;;;14.40;99.90;;;;;;4994629;28;20418;-81
2021/08/07 01:13:08;;;;;;;3.80;3.60;;;14.40;99.90;;;;;;4994522;28;20449;-81
2021/08/07 01:15:38;;;;;;;4.50;4.20;;;14.50;99.90;;;;;;4977509;28;20174;-81
2021/08/07 01:18:08;;;;;;;4.57;4.17;;;14.60;99.90;;;;;;4977451;28;20484;-81
2021/08/07 01:20:48;;;;;;;3.87;3.57;;;14.80;99.90;;;;;;4993750;28;20414;-82
2021/08/07 01:23:24;;;;;;;5.77;5.13;;;14.80;99.90;;;;;;4994642;28;20719;-81
2021/08/07 01:26:06;;;;;;;5.40;4.63;;;14.90;99.90;;;;;;4994540;28;20391;-82
2021/08/07 01:28:34;;;;;;;4.30;4.00;;;14.90;99.90;;;;;;4977194;28;20454;-82
2021/08/07 01:31:02;;;;;;;4.57;4.30;;;15.00;99.90;;;;;;4977227;28;20398;-81
2021/08/07 01:33:29;;;;;;;4.03;3.60;;;15.00;99.90;;;;;;4994429;28;20434;-81
2021/08/07 01:35:55;;;;;;;4.00;3.80;;;15.00;99.90;;;;;;4995028;28;20454;-81
2021/08/07 01:38:21;;;;;;;3.70;3.47;;;15.00;99.90;;;;;;4995075;28;20408;-81
2021/08/07 01:40:47;;;;;;;4.37;4.10;;;15.00;99.90;;;;;;4998496;28;20670;-82
2021/08/07 01:43:13;;;;;;;4.30;3.93;;;15.00;99.90;;;;;;4995770;28;20402;-81
2021/08/07 01:45:39;;;;;;;4.23;3.83;;;15.00;99.90;;;;;;4994265;28;20518;-82
2021/08/07 01:48:10;;;;;;;4.23;3.93;;;15.00;99.90;;;;;;4976916;28;20315;-82
2021/08/07 01:50:51;;;;;;;5.00;4.60;;;15.00;99.90;;;;;;4994231;28;20387;-82
2021/08/07 01:53:23;;;;;;;4.60;4.30;;;15.00;99.90;;;;;;4977102;28;20470;-82
2021/08/07 01:55:48;;;;;;;4.60;4.20;;;15.00;99.90;;;;;;4994216;28;20387;-82
2021/08/07 01:58:22;;;;;;;3.93;3.63;;;15.00;99.90;;;;;;4977072;28;20892;-82
2021/08/07 02:00:49;;;;;;;3.60;3.40;;;14.90;99.90;;;;;;4976920;28;20304;-81
2021/08/07 02:03:16;;;;;;;4.40;4.10;;;14.90;99.90;;;;;;4994080;28;20556;-82
2021/08/07 02:05:43;;;;;;;4.50;4.20;;;14.90;99.90;;;;;;4976843;28;20425;-81
2021/08/07 02:08:10;;;;;;;5.20;4.80;;;15.00;99.90;;;;;;4993997;28;20487;-82
2021/08/07 02:10:40;;;;;;;5.57;5.17;;;15.00;99.90;;;;;;4994008;28;20927;-82
2021/08/07 02:13:07;;;;;;;4.93;4.50;;;15.00;99.90;;;;;;4977126;28;20410;-82
2021/08/07 02:15:34;;;;;;;5.40;4.90;;;15.00;99.90;;;;;;4993990;28;20886;-81
2021/08/07 02:18:00;;;;;;;5.37;4.97;;;15.00;99.90;;;;;;4993915;28;20496;-82
2021/08/07 02:20:28;;;;;;;5.40;3.80;;;15.10;99.90;;;;;;4993866;28;20867;-82
2021/08/07 02:22:55;;;;;;;5.53;5.13;;;15.10;99.90;;;;;;4993872;28;20485;-82
2021/08/07 02:25:21;;;;;;;5.67;5.27;;;15.10;99.90;;;;;;4976985;28;20469;-82
2021/08/07 02:27:49;;;;;;;4.97;4.67;;;15.10;99.90;;;;;;4976678;28;20458;-82
2021/08/07 02:30:15;;;;;;;5.30;4.60;;;15.10;99.90;;;;;;4976616;28;20830;-82
2021/08/07 02:32:43;;;;;;;5.67;5.10;;;15.10;99.90;;;;;;4996079;28;20445;-82
2021/08/07 02:35:10;;;;;;;5.03;4.53;;;15.00;99.90;;;;;;4997320;28;20402;-82
2021/08/07 02:37:37;;;;;;;5.37;4.97;;;15.00;99.90;;;;;;4980080;28;20460;-82
2021/08/07 02:40:06;;;;;;;5.37;4.97;;;14.90;99.90;;;;;;4997365;28;20472;-82
2021/08/07 02:42:33;;;;;;;4.77;4.47;;;14.80;99.90;;;;;;4997192;28;20414;-81
2021/08/07 02:45:00;;;;;;;4.70;4.40;;;14.80;99.90;;;;;;4997190;28;20402;-82
2021/08/07 02:47:26;;;;;;;5.33;4.40;;;14.80;99.90;;;;;;4997572;28;20516;-82
2021/08/07 02:49:52;;;;;;;5.07;4.77;;;14.70;99.90;;;;;;4997125;28;20410;-81
2021/08/07 02:52:19;;;;;;;5.27;4.87;;;14.70;99.90;;;;;;4979860;28;20434;-82
2021/08/07 02:54:45;;;;;;;4.60;4.30;;;14.60;99.90;;;;;;4997036;28;20770;-82
2021/08/07 02:57:12;;;;;;;4.40;4.10;;;14.60;99.90;;;;;;4997000;28;20407;-82
2021/08/07 02:59:38;;;;;;;4.20;3.90;;;14.60;99.90;;;;;;4996721;28;20487;-82
2021/08/07 03:02:04;;;;;;;3.90;3.70;;;14.50;99.90;;;;;;4996844;28;20422;-82
2021/08/07 03:04:30;;;;;;;4.40;4.10;;;14.50;99.90;;;;;;4979564;28;20429;-82
2021/08/07 03:06:56;;;;;;;4.70;4.43;;;14.50;99.90;;;;;;4996760;28;20741;-82
2021/08/07 03:09:21;;;;;;;4.77;4.40;;;14.50;99.90;;;;;;4996773;28;20186;-81
2021/08/07 03:11:47;;;;;;;5.60;5.17;;;14.50;99.90;;;;;;4996707;28;20175;-81
2021/08/07 03:14:13;;;;;;;5.10;4.80;;;14.50;99.90;;;;;;4979562;28;20182;-82
2021/08/07 03:16:39;;;;;;;5.07;4.70;;;14.50;99.90;;;;;;4996716;28;20168;-82
2021/08/07 03:19:04;;;;;;;4.97;4.60;;;14.50;99.90;;;;;;4979307;28;20501;-82
2021/08/07 03:21:30;;;;;;;4.50;4.17;;;14.50;99.90;;;;;;4996574;28;20411;-82
2021/08/07 03:23:56;;;;;;;4.37;4.10;;;14.40;99.90;;;;;;4979357;28;20177;-82
2021/08/07 03:26:23;;;;;;;5.17;4.87;;;14.40;99.90;;;;;;4996503;28;20199;-82
2021/08/07 03:28:49;;;;;;;4.57;4.27;;;14.40;99.90;;;;;;4996289;28;20453;-81
2021/08/07 03:31:15;;;;;;;5.20;4.70;;;14.40;99.90;;;;;;4996405;28;20786;-82
2021/08/07 03:33:41;;;;;;;5.00;4.67;;;14.40;99.90;;;;;;4979127;28;20186;-82
2021/08/07 03:36:08;;;;;;;5.30;4.50;;;14.40;99.90;;;;;;4996336;28;20414;-82
2021/08/07 03:38:33;;;;;;;5.93;5.50;;;14.30;99.90;;;;;;4979190;28;20430;-81
2021/08/07 03:40:59;;;;;;;5.00;4.60;;;14.30;99.90;;;;;;4996245;28;20406;-82
2021/08/07 03:43:25;;;;;;;4.43;4.23;;;14.20;99.90;;;;;;4995226;28;20172;-82
2021/08/07 03:45:51;;;;;;;4.90;4.60;;;14.20;99.90;;;;;;4978906;28;20836;-82
2021/08/07 03:48:17;;;;;;;5.90;5.10;;;14.20;99.90;;;;;;4996011;28;20203;-82
2021/08/07 03:50:42;;;;;;;4.60;4.30;;;14.20;99.90;;;;;;4996006;28;20251;-82
2021/08/07 03:53:08;;;;;;;5.23;4.73;;;14.20;99.90;;;;;;4995973;28;20172;-81
2021/08/07 03:55:34;;;;;;;5.20;4.80;;;14.20;99.90;;;;;;4978746;28;20189;-82
2021/08/07 03:58:00;;;;;;;4.73;4.43;;;14.20;99.90;;;;;;4995931;28;20585;-81
2021/08/07 04:00:35;;;;;;;4.47;4.23;;;14.20;99.90;;;;;;4995696;28;20526;-82
2021/08/07 04:03:01;;;;;;;4.30;4.00;;;14.20;99.90;;;;;;4995830;28;20391;-81
2021/08/07 04:05:27;;;;;;;5.10;4.80;;;14.20;99.90;;;;;;4995632;28;20414;-81
2021/08/07 04:08:03;;;;;;;5.20;4.80;;;14.20;99.90;;;;;;4978332;28;20572;-81
2021/08/07 04:10:29;;;;;;;4.70;4.40;;;14.10;99.90;;;;;;4995714;28;20391;-82
2021/08/07 04:12:55;;;;;;;7.33;5.13;;;14.10;99.90;;;;;;4978312;28;20908;-82
2021/08/07 04:15:21;;;;;;;4.40;4.10;;;14.10;99.90;;;;;;4978361;28;20407;-82
2021/08/07 04:17:46;;;;;;;5.93;5.53;;;14.10;99.90;;;;;;4978410;28;20179;-82
2021/08/07 04:20:12;;;;;;;4.70;4.40;;;14.10;99.90;;;;;;4995443;28;20177;-82
2021/08/07 04:22:38;;;;;;;4.87;4.57;;;14.10;99.90;;;;;;4995305;28;20175;-81
2021/08/07 04:25:06;;;;;;;4.73;4.40;;;14.10;99.90;;;;;;4995255;28;20403;-82
2021/08/07 04:27:32;;;;;;;5.00;4.63;;;14.10;99.90;;;;;;4995218;28;20214;-82
2021/08/07 04:29:57;;;;;;;4.83;4.17;;;14.10;99.90;;;;;;4995256;28;20410;-82
2021/08/07 04:32:23;;;;;;;4.33;3.93;;;14.20;99.90;;;;;;4978045;28;20172;-81
2021/08/07 04:34:49;;;;;;;6.43;5.90;;;14.20;99.90;;;;;;4995111;28;20612;-81
2021/08/07 04:37:15;;;;;;;5.37;4.93;;;14.30;99.90;;;;;;4977932;28;20191;-81
2021/08/07 04:39:41;;;;;;;4.20;4.00;;;14.30;99.90;;;;;;4995076;28;20447;-81
2021/08/07 04:42:07;;;;;;;4.60;4.30;;;14.30;99.90;;;;;;4995031;28;20163;-82
2021/08/07 04:44:32;;;;;;;4.90;4.67;;;14.40;99.90;;;;;;4977795;28;20174;-82
2021/08/07 04:46:58;;;;;;;5.77;5.37;;;14.40;99.90;;;;;;4977805;28;20174;-82
2021/08/07 04:49:23;;;;;;;5.17;4.77;;;14.50;99.90;;;;;;4994887;28;20206;-82
2021/08/07 04:51:49;;;;;;;4.70;4.40;;;14.50;99.90;;;;;;4994961;28;20506;-82
2021/08/07 04:54:15;;;;;;;5.00;4.70;;;14.60;99.90;;;;;;4977500;28;20203;-82
2021/08/07 04:56:42;;;;;;;5.60;5.20;;;14.60;99.90;;;;;;4994844;28;20159;-82
2021/08/07 04:59:08;;;;;;;5.60;5.20;;;14.60;99.90;;;;;;4994630;28;20159;-82
2021/08/07 05:01:34;;;;;;;5.10;4.80;;;14.70;99.90;;;;;;4994882;28;20394;-82
2021/08/07 05:04:00;;;;;;;5.20;4.80;;;14.70;99.90;;;;;;4994677;28;20601;-82
2021/08/07 05:06:26;;;;;;;4.87;4.47;;;14.70;99.90;;;;;;4994704;28;20233;-82
2021/08/07 05:08:51;;;;;;;5.23;4.73;;;14.80;99.90;;;;;;4994518;28;20206;-81
2021/08/07 05:11:17;;;;;;;5.73;5.23;;;14.80;99.90;;;;;;4995210;28;20406;-82
2021/08/07 05:13:43;;;;;;;8.60;5.13;;;14.90;99.90;;;;;;4994608;28;20411;-82
2021/08/07 05:16:08;;;;;;;5.97;5.47;;;15.00;99.90;;;;;;4994565;28;20178;-82
2021/08/07 05:18:34;;;;;;;6.57;6.07;;;15.00;99.90;;;;;;4977698;28;20218;-81
2021/08/07 05:21:00;;;;;;;6.60;5.90;;;15.10;99.90;;;;;;4994556;28;20183;-82
2021/08/07 05:23:25;;;;;;;6.37;5.80;;;15.10;99.90;;;;;;4994448;28;20175;-82
2021/08/07 05:25:51;;;;;;;7.50;6.80;;;15.20;99.90;;;;;;4994405;28;20519;-82
2021/08/07 05:28:17;;;;;;;7.67;5.70;;;15.30;99.90;;;;;;4977126;28;20629;-82
2021/08/07 05:30:42;;;;;;;8.07;6.43;;;15.30;99.90;;;;;;4977288;28;20178;-82
2021/08/07 05:33:08;;;;;;;6.47;5.97;;;15.30;99.90;;;;;;4977269;28;20175;-82
2021/08/07 05:35:34;;;;;;;4.73;4.43;;;15.40;99.90;;;;;;4977119;28;20225;-82
2021/08/07 05:37:59;;;;;;;6.23;5.73;;;15.50;99.90;;;;;;4994370;28;20237;-82
2021/08/07 05:40:25;;;;;;;6.43;5.40;;;15.60;99.90;;;;;;4994375;28;20561;-82
2021/08/07 05:42:51;;;;;;;6.03;5.60;;;15.60;99.90;;;;;;4994282;28;20613;-82
2021/08/07 05:45:16;;;;;;;6.13;5.63;;;15.60;99.90;;;;;;4977153;28;20171;-82
2021/08/07 05:47:42;;;;;;;5.43;5.10;;;15.70;99.90;;;;;;4994289;28;20195;-82
2021/08/07 05:50:09;;;;;;;6.40;5.90;;;15.70;99.90;;;;;;4977029;28;20174;-82
2021/08/07 05:52:36;;;;;;;6.67;6.17;;;15.70;99.90;;;;;;4994163;28;20163;-82
2021/08/07 05:55:03;;;;;;;5.20;4.80;;;15.90;99.90;;;;;;4994137;28;20415;-82
2021/08/07 05:57:28;;;;;;;6.50;5.90;;;16.00;99.90;;;;;;4994158;28;20437;-82
2021/08/07 05:59:54;;;;;;;6.13;5.60;;;16.10;99.90;;;;;;4994075;28;20430;-82
2021/08/07 06:02:19;;;;;;;5.90;5.50;;;16.20;99.90;;;;;;4994227;28;20163;-82
2021/08/07 06:04:46;;;;;;;6.70;6.10;;;16.20;99.90;;;;;;4994053;28;20257;-82
2021/08/07 06:07:12;;;;;;;5.67;5.27;;;16.30;99.90;;;;;;4995710;28;20406;-82
2021/08/07 06:09:38;;;;;;;8.07;5.57;;;16.30;99.90;;;;;;4997869;28;20181;-82
2021/08/07 06:12:04;;;;;;;6.37;5.77;;;16.40;99.90;;;;;;4997842;28;20567;-82
2021/08/07 06:14:29;;;;;;;6.57;5.97;;;16.40;99.90;;;;;;4997716;28;20190;-82
2021/08/07 06:16:55;;;;;;;6.10;5.60;;;16.40;99.90;;;;;;4980576;28;20266;-82
2021/08/07 06:19:22;;;;;;;5.50;4.70;;;16.50;99.90;;;;;;4997704;28;20210;-82
2021/08/07 06:21:47;;;;;;;5.10;4.80;;;16.50;99.90;;;;;;4997703;28;20418;-82
2021/08/07 06:24:13;;;;;;;6.50;6.00;;;16.60;99.90;;;;;;4997621;28;20430;-82
2021/08/07 06:26:39;;;;;;;5.67;5.27;;;16.70;99.90;;;;;;4980495;28;20198;-82
2021/08/07 06:29:05;;;;;;;5.37;4.87;;;16.70;99.90;;;;;;4997478;28;20586;-82
2021/08/07 06:31:31;;;;;;;5.87;5.33;;;16.70;99.90;;;;;;4980375;28;20175;-82
2021/08/07 06:33:57;;;;;;;5.57;5.07;;;16.60;99.90;;;;;;4997332;28;20472;-82
2021/08/07 06:36:23;;;;;;;4.40;4.03;;;16.70;99.90;;;;;;4997444;28;20501;-82
2021/08/07 06:38:49;;;;;;;7.00;4.93;;;16.70;99.90;;;;;;4997478;28;20406;-82
2021/08/07 06:41:15;;;;;;;5.60;5.20;;;16.80;99.90;;;;;;4997332;28;20428;-82
2021/08/07 06:43:41;;;;;;;4.67;4.37;;;16.80;99.90;;;;;;4997420;28;20183;-82
2021/08/07 06:46:07;;;;;;;6.77;4.50;;;16.90;99.90;;;;;;4980060;28;20520;-82
2021/08/07 06:48:32;;;;;;;5.63;5.23;;;16.90;99.90;;;;;;4980023;28;20199;-82
2021/08/07 06:50:58;;;;;;;4.70;4.37;;;17.00;99.90;;;;;;4997267;28;20417;-81
2021/08/07 06:53:24;;;;;;;3.90;3.70;;;17.10;99.90;;;;;;4979868;28;20647;-82
2021/08/07 06:55:49;;;;;;;4.97;3.50;;;17.30;99.90;;;;;;4997083;28;20631;-82
2021/08/07 06:58:15;;;;;;;4.33;4.03;;;17.40;99.90;;;;;;4979616;28;20175;-82
2021/08/07 07:00:41;;;;;;;4.20;3.83;;;17.50;99.90;;;;;;4997002;28;20199;-82
2021/08/07 07:03:07;;;;;;;4.10;3.90;;;17.60;99.90;;;;;;4996876;28;20168;-82
2021/08/07 07:05:33;;;;;;;3.70;3.20;;;17.70;99.90;;;;;;4996843;28;20182;-82
2021/08/07 07:08:00;;;;;;;3.63;3.43;;;17.70;99.90;;;;;;4979606;28;20465;-82
2021/08/07 07:10:26;;;;;;;3.97;3.77;;;17.70;99.90;;;;;;4979685;28;20497;-81
2021/08/07 07:12:52;;;;;;;4.13;3.90;;;17.80;99.90;;;;;;4996751;28;20429;-81
2021/08/07 07:15:18;;;;;;;3.53;3.33;;;17.80;99.90;;;;;;4979452;28;20403;-81
2021/08/07 07:17:44;;;;;;;4.90;4.50;;;17.80;99.90;;;;;;4996222;28;20602;-82
2021/08/07 07:20:10;;;;;;;3.43;3.13;;;17.90;99.90;;;;;;4996356;28;20226;-81
2021/08/07 07:22:36;;;;;;;4.77;4.37;;;17.90;99.90;;;;;;4996636;28;20418;-81
2021/08/07 07:25:03;;;;;;;3.20;3.00;;;17.80;99.90;;;;;;4996448;28;20433;-82
2021/08/07 07:27:29;;;;;;;4.70;4.30;;;17.70;99.90;;;;;;4979258;28;20249;-81
2021/08/07 07:29:54;;;;;;;3.10;2.90;;;17.70;99.90;;;;;;4996490;28;20438;-81
2021/08/07 07:32:21;;;;;;;4.30;3.90;;;17.70;99.90;;;;;;4996617;28;20250;-82
2021/08/07 07:34:46;;;;;;;4.20;3.90;;;17.80;99.90;;;;;;4979090;28;20505;-82
2021/08/07 07:37:12;;;;;;;3.53;3.23;;;18.00;99.90;;;;;;4996255;28;20175;-82
2021/08/07 07:39:38;;;;;;;4.77;3.93;;;18.10;99.90;;;;;;4996211;28;20174;-81
2021/08/07 07:42:03;;;;;;;4.07;3.63;;;18.30;99.90;;;;;;4996152;28;20175;-82
2021/08/07 07:44:29;;;;;;;3.73;3.53;;;18.40;99.90;;;;;;4978907;28;20176;-81
2021/08/07 07:46:55;;;;;;;4.33;3.93;;;18.40;99.90;;;;;;4996065;28;20175;-81
2021/08/07 07:49:21;;;;;;;4.43;3.37;;;18.40;99.90;;;;;;4995993;28;20535;-81
2021/08/07 07:51:46;;;;;;;3.37;3.17;;;18.30;99.90;;;;;;4979178;28;20506;-81
2021/08/07 07:54:12;;;;;;;3.67;3.37;;;18.40;99.90;;;;;;4995903;28;20402;-81
2021/08/07 07:56:38;;;;;;;7.33;3.40;;;18.40;99.90;;;;;;4978713;28;20171;-82
2021/08/07 07:59:04;;;;;;;2.80;2.70;;;18.30;99.90;;;;;;4995740;28;20182;-82
2021/08/07 08:01:29;;;;;;;2.80;2.60;;;18.30;99.90;;;;;;4995908;28;20406;-81
2021/08/07 08:03:55;;;;;;;3.53;3.23;;;18.30;99.90;;;;;;4996015;28;20175;-82
2021/08/07 08:06:21;;;;;;;3.20;2.30;;;18.30;99.90;;;;;;4995697;28;20171;-82
2021/08/07 08:08:46;;;;;;;5.03;3.10;;;18.30;99.90;;;;;;4995581;28;20199;-82
2021/08/07 08:11:12;;;;;;;3.97;2.20;;;18.20;99.90;;;;;;4978393;28;20233;-81
2021/08/07 08:13:38;;;;;;;2.80;2.67;;;18.20;99.90;;;;;;4995564;28;20234;-82
2021/08/07 08:16:05;;;;;;;2.83;2.60;;;18.30;99.90;;;;;;4995527;28;20203;-82
2021/08/07 08:18:31;;;;;;;2.50;2.40;;;18.40;99.90;;;;;;4995802;28;20426;-82
2021/08/07 08:20:57;;;;;;;4.30;3.27;;;18.50;99.90;;;;;;4978296;28;20828;-82
2021/08/07 08:23:22;;;;;;;3.47;2.97;;;18.70;99.90;;;;;;4995373;28;20406;-82
2021/08/07 08:25:49;;;;;;;2.80;2.60;;;18.80;99.90;;;;;;4995317;28;20167;-81
2021/08/07 08:28:14;;;;;;;3.03;2.90;;;18.90;99.90;;;;;;4995275;28;20198;-82
2021/08/07 08:30:40;;;;;;;2.43;2.33;;;19.10;99.90;;;;;;4994857;28;20421;-82
2021/08/07 08:33:06;;;;;;;4.33;2.93;;;19.30;99.90;;;;;;4995274;28;20177;-81
2021/08/07 08:35:32;;;;;;;3.60;3.40;;;19.40;99.90;;;;;;4995176;28;20480;-81
2021/08/07 08:37:57;;;;;;;3.10;2.40;;;19.60;99.90;;;;;;4995221;28;20182;-81
2021/08/07 08:40:24;;;;;;;4.07;2.80;;;19.80;99.90;;;;;;4995069;28;20172;-81
2021/08/07 08:42:51;;;;;;;2.27;2.17;;;20.10;99.90;;;;;;4995106;28;20175;-82
2021/08/07 08:45:17;;;;;;;2.87;2.13;;;20.20;99.90;;;;;;4995287;28;20497;-81
2021/08/07 08:47:43;;;;;;;2.30;2.10;;;20.20;99.90;;;;;;4994965;28;20536;-82
2021/08/07 08:50:11;;;;;;;2.20;2.10;;;20.10;99.90;;;;;;4994905;28;20436;-82
2021/08/07 08:52:41;;;;;;;2.30;2.20;;;20.00;99.90;;;;;;4994919;28;20422;-82
2021/08/07 08:55:09;;;;;;;2.20;2.00;;;20.00;99.90;;;;;;4994844;28;20398;-82
2021/08/07 08:57:35;;;;;;;2.50;2.30;;;20.00;99.90;;;;;;4994836;28;20470;-82
2021/08/07 09:00:01;;;;;;;2.17;2.07;;;20.10;99.90;;;;;;4977521;28;21006;-82
2021/08/07 09:02:27;;;;;;;2.47;1.93;;;20.10;99.90;;;;;;4977585;28;20187;-82
2021/08/07 09:04:52;;;;;;;1.80;1.70;;;20.10;99.90;;;;;;4994756;28;20421;-82
2021/08/07 09:07:19;;;;;;;2.17;2.00;;;20.20;99.90;;;;;;4994585;28;20171;-82
2021/08/07 09:09:53;;;;;;;1.97;1.83;;;20.30;99.90;;;;;;4994665;28;20155;-82
2021/08/07 09:12:19;;;;;;;1.90;1.80;;;20.30;99.90;;;;;;4994666;28;20387;-82
2021/08/07 09:14:47;;;;;;;2.10;2.00;;;20.40;99.90;;;;;;4994611;28;20410;-82
2021/08/07 09:17:30;;;;;;;2.90;1.70;;;20.50;99.90;;;;;;4994623;28;20868;-82
2021/08/07 09:19:59;;;;;;;2.77;2.13;;;20.60;99.90;;;;;;4994662;28;20848;-82
2021/08/07 09:22:27;;;;;;;1.83;1.73;;;20.70;99.90;;;;;;4994356;28;20418;-82
2021/08/07 09:24:57;;;;;;;2.93;2.70;;;20.90;99.90;;;;;;4994396;28;20888;-82
2021/08/07 09:27:48;;;;;;;3.20;2.00;;;21.00;99.90;;;;;;4994352;28;20395;-82
2021/08/07 09:30:16;;;;;;;3.93;2.13;;;21.00;99.90;;;;;;4972466;28;20419;-82
2021/08/07 09:32:59;;;;;;;2.07;1.90;;;21.00;99.90;;;;;;4977213;28;20421;-81
2021/08/07 09:35:40;;;;;;;2.33;2.23;;;21.00;99.90;;;;;;4977235;28;20421;-82
2021/08/07 09:38:20;;;;;;;2.53;2.30;;;21.00;99.90;;;;;;4977184;28;20425;-82
2021/08/07 09:40:58;;;;;;;3.83;2.47;;;20.90;99.90;;;;;;4994564;28;20482;-82
2021/08/07 09:43:39;;;;;;;2.40;2.20;;;21.10;99.90;;;;;;4998092;28;20405;-82
2021/08/07 09:46:15;;;;;;;2.30;2.10;;;21.20;99.90;;;;;;4998355;28;20389;-82
2021/08/07 09:48:50;;;;;;;2.53;2.13;;;21.40;99.90;;;;;;4998217;28;20449;-82
2021/08/07 09:51:22;;;;;;;2.47;2.27;;;21.50;99.90;;;;;;4998395;28;20462;-82
2021/08/07 09:54:03;;;;;;;2.50;2.30;;;21.60;99.90;;;;;;4998196;28;20887;-82
2021/08/07 09:56:51;;;;;;;1.97;1.87;;;21.60;99.90;;;;;;4998154;28;20421;-82
2021/08/07 09:59:18;;;;;;;3.70;2.53;;;21.70;99.90;;;;;;4998010;28;20429;-82
2021/08/07 10:01:46;;;;;;;2.30;2.20;;;21.70;99.90;;;;;;4998031;28;20418;-82
2021/08/07 10:04:14;;;;;;;4.40;2.50;;;21.90;99.90;;;;;;4998017;28;20767;-82
2021/08/07 10:06:41;;;;;;;2.23;2.13;;;22.20;99.90;;;;;;4997968;28;20402;-82
2021/08/07 10:09:07;;;;;;;2.33;2.00;;;22.40;99.90;;;;;;4997966;28;20978;-82
2021/08/07 10:11:34;;;;;;;2.67;1.90;;;22.70;99.90;;;;;;4980720;28;20406;-82
2021/08/07 10:14:00;;;;;;;2.00;1.90;;;22.80;99.90;;;;;;4997841;28;20420;-82
2021/08/07 10:16:27;;;;;;;4.93;2.47;;;23.00;99.90;;;;;;4997789;28;20402;-82
2021/08/07 10:18:53;;;;;;;4.43;2.20;;;23.10;99.90;;;;;;4997719;28;20171;-82
2021/08/07 10:21:20;;;;;;;3.73;2.20;;;23.20;99.90;;;;;;4980574;28;20860;-82
2021/08/07 10:23:47;;;;;;;2.33;2.13;;;23.40;99.90;;;;;;4997691;28;20425;-82
2021/08/07 10:26:16;;;;;;;2.60;2.20;;;23.50;99.90;;;;;;4997650;28;20419;-82
2021/08/07 10:28:53;;;;;;;2.40;2.20;;;23.60;99.90;;;;;;4980365;28;20544;-82
2021/08/07 10:31:24;;;;;;;2.47;2.27;;;23.90;99.90;;;;;;4980385;28;20434;-82
2021/08/07 10:33:55;;;;;;;3.70;2.67;;;24.10;99.90;;;;;;4997838;28;20402;-82
2021/08/07 10:36:23;;;;;;;2.17;1.83;;;24.40;99.90;;;;;;4997528;28;20470;-82
2021/08/07 10:38:51;;;;;;;3.17;2.53;;;24.70;99.90;;;;;;4997459;28;20417;-82
2021/08/07 10:41:17;;;;;;;3.10;2.43;;;24.90;99.90;;;;;;4997368;28;20422;-82
2021/08/07 10:43:43;;;;;;;3.27;2.13;;;24.70;99.90;;;;;;4997246;28;20418;-82
2021/08/07 10:46:10;;;;;;;1.90;1.80;;;24.60;99.90;;;;;;4997272;28;20186;-82
2021/08/07 10:48:41;;;;;;;2.27;2.17;;;24.70;99.90;;;;;;4997177;28;20465;-82
2021/08/07 10:51:22;;;;;;;2.27;2.13;;;24.70;99.90;;;;;;4997224;28;20402;-82
2021/08/07 10:53:53;;;;;;;2.23;1.93;;;24.60;99.90;;;;;;4996801;28;20432;-82
2021/08/07 10:56:42;;;;;;;4.70;2.40;;;24.80;99.90;;;;;;4979860;28;20477;-82
2021/08/07 10:59:11;;;;;;;2.30;2.20;;;24.80;99.90;;;;;;4997084;28;20472;-82
2021/08/07 11:01:39;;;;;;;2.37;2.10;;;24.40;99.90;;;;;;4997001;28;20442;-82
2021/08/07 11:04:09;;;;;;;2.13;2.00;;;24.20;99.90;;;;;;4979836;28;20896;-82
2021/08/07 11:06:38;;;;;;;3.70;2.60;;;24.20;99.90;;;;;;4979764;28;20497;-82
2021/08/07 11:09:22;;;;;;;2.20;2.10;;;23.90;99.90;;;;;;4996869;28;20486;-82
2021/08/07 11:11:50;;;;;;;2.90;2.70;;;23.70;99.90;;;;;;4996775;28;20410;-82
2021/08/07 11:14:21;;;;;;;2.50;2.30;;;23.80;99.90;;;;;;4996742;28;20406;-82
2021/08/07 11:17:05;;;;;;;6.93;3.00;;;24.10;99.90;;;;;;4979427;28;20451;-82
2021/08/07 11:19:50;;;;;;;2.53;2.33;;;24.50;99.90;;;;;;4996646;28;20914;-82
2021/08/07 11:22:16;;;;;;;2.30;2.03;;;24.70;99.90;;;;;;4996841;28;20944;-82
2021/08/07 11:24:57;;;;;;;2.20;2.10;;;24.90;99.90;;;;;;4996555;28;20557;-83
2021/08/07 11:28:03;;;;;;;2.07;1.87;;;24.90;99.90;;;;;;4979270;28;20406;-82
2021/08/07 11:30:34;;;;;;;2.33;2.10;;;24.50;99.90;;;;;;4996422;28;20426;-82
2021/08/07 11:33:03;;;;;;;2.20;2.10;;;24.10;99.90;;;;;;4979309;28;20449;-82
2021/08/07 11:35:38;;;;;;;1.83;1.73;;;23.80;99.90;;;;;;4996345;28;20410;-82
2021/08/07 11:38:13;;;;;;;1.90;1.70;;;23.60;99.90;;;;;;4996328;28;20396;-82
2021/08/07 11:40:45;;;;;;;1.93;1.83;;;23.50;99.90;;;;;;4979145;28;20418;-82
2021/08/07 11:43:21;;;;;;;2.03;1.93;;;23.40;99.90;;;;;;4996181;28;20859;-82
2021/08/07 11:46:08;;;;;;;3.83;2.33;;;23.40;99.90;;;;;;4996172;28;20399;-82
2021/08/07 11:48:45;;;;;;;2.10;2.00;;;23.30;99.90;;;;;;4995522;28;20470;-82
2021/08/07 11:51:13;;;;;;;2.27;2.17;;;23.30;99.90;;;;;;4996028;28;20795;-82
2021/08/07 11:53:43;;;;;;;1.90;1.80;;;23.30;99.90;;;;;;4996128;28;20501;-82
2021/08/07 11:56:12;;;;;;;3.03;2.67;;;23.30;99.90;;;;;;4995991;28;20415;-82
2021/08/07 11:58:45;;;;;;;2.70;2.50;;;23.30;99.90;;;;;;4995854;28;20410;-82
2021/08/07 12:01:11;;;;;;;1.97;1.87;;;23.40;99.90;;;;;;4995807;28;20797;-82
2021/08/07 12:03:41;;;;;;;2.30;2.20;;;23.50;99.90;;;;;;4995668;28;20415;-81
2021/08/07 12:06:08;;;;;;;2.10;2.00;;;23.60;99.90;;;;;;4995173;28;20797;-82
2021/08/07 12:08:34;;;;;;;2.00;1.90;;;23.90;99.90;;;;;;4995561;28;20462;-82
2021/08/07 12:11:08;;;;;;;2.00;1.90;;;24.40;99.90;;;;;;4995695;28;20407;-82
2021/08/07 12:13:38;;;;;;;1.97;1.80;;;24.90;99.90;;;;;;4995641;28;20498;-82
2021/08/07 12:16:12;;;;;;;1.70;1.60;;;25.00;99.90;;;;;;4995519;28;20728;-82
2021/08/07 12:18:52;;;;;;;3.53;2.13;;;25.00;99.90;;;;;;4995494;28;20421;-82
2021/08/07 12:21:23;;;;;;;1.70;1.60;;;24.60;99.90;;;;;;4995539;28;20402;-82
2021/08/07 12:23:53;;;;;;;2.00;1.90;;;24.40;99.90;;;;;;4995711;28;20733;-82
2021/08/07 12:26:20;;;;;;;2.20;1.90;;;24.10;99.90;;;;;;4995402;28;20414;-82
2021/08/07 12:28:46;;;;;;;1.93;1.83;;;23.80;99.90;;;;;;4995576;28;20450;-82
2021/08/07 12:31:13;;;;;;;2.17;2.07;;;23.60;99.90;;;;;;4995287;28;20406;-83
2021/08/07 12:33:41;;;;;;;1.60;1.50;;;23.50;99.90;;;;;;4995260;28;20473;-82
2021/08/07 12:36:16;;;;;;;1.60;1.50;;;23.50;99.90;;;;;;4995201;28;20415;-83
2021/08/07 12:38:47;;;;;;;1.63;1.53;;;23.50;99.90;;;;;;4995542;28;20894;-82
2021/08/07 12:41:14;;;;;;;1.73;1.63;;;23.70;99.90;;;;;;4995243;28;20398;-82
2021/08/07 12:43:40;;;;;;;1.40;1.30;;;24.10;99.90;;;;;;4978046;28;20434;-83
2021/08/07 12:46:12;;;;;;;1.20;1.20;;;24.50;99.90;;;;;;4995006;28;20415;-82
2021/08/07 12:48:53;;;;;;;1.40;1.30;;;24.40;99.90;;;;;;4994887;28;20465;-82
2021/08/07 12:51:31;;;;;;;1.30;1.30;;;24.10;99.90;;;;;;4978011;28;20892;-82
2021/08/07 12:53:59;;;;;;;1.50;1.40;;;23.80;99.90;;;;;;4977668;28;20441;-82